createdAt,value
2022-10-24T00:00:58.559Z,4.63
2022-10-24T00:02:09.507Z,3.90
2022-10-24T00:03:11.707Z,3.70
2022-10-24T00:04:14.291Z,4.33
2022-10-24T00:05:15.960Z,3.95
2022-10-24T00:06:19.615Z,3.75
2022-10-24T00:07:21.167Z,4.57
2022-10-24T00:08:25.049Z,3.40
2022-10-24T00:09:26.760Z,3.83
2022-10-24T00:10:29.364Z,3.63
2022-10-24T00:11:30.958Z,4.45
2022-10-24T00:12:34.108Z,4.05
2022-10-24T00:13:35.684Z,3.97
2022-10-24T00:14:38.844Z,3.45
2022-10-24T00:15:44.883Z,3.53
2022-10-24T00:16:47.408Z,3.88
2022-10-24T00:17:49.086Z,4.05
2022-10-24T00:18:51.611Z,3.63
2022-10-24T00:19:54.199Z,4.03
2022-10-24T00:20:56.965Z,3.80
2022-10-24T00:21:58.610Z,4.07
2022-10-24T00:23:01.106Z,3.70
2022-10-24T00:24:04.659Z,4.38
2022-10-24T00:25:08.270Z,5.22
2022-10-24T00:26:11.037Z,5.05
2022-10-24T00:27:13.556Z,5.25
2022-10-24T00:28:15.333Z,4.13
2022-10-24T00:29:17.935Z,3.78
2022-10-24T00:30:19.649Z,3.63
2022-10-24T00:31:22.757Z,5.32
2022-10-24T00:32:24.754Z,4.47
2022-10-24T00:33:27.717Z,4.93
2022-10-24T00:34:29.273Z,3.60
2022-10-24T00:35:31.806Z,3.85
2022-10-24T00:36:33.414Z,3.47
2022-10-24T00:37:36.184Z,3.70
2022-10-24T00:38:37.735Z,3.83
2022-10-24T00:39:41.562Z,4.38
2022-10-24T00:40:43.520Z,4.53
2022-10-24T00:41:46.211Z,4.20
2022-10-24T00:42:48.716Z,3.60
2022-10-24T00:43:51.317Z,4.97
2022-10-24T00:44:53.613Z,3.80
2022-10-24T00:45:57.111Z,4.30
2022-10-24T00:47:03.013Z,3.67
2022-10-24T00:48:13.759Z,3.75
2022-10-24T00:49:17.816Z,3.50
2022-10-24T00:50:20.402Z,4.15
2022-10-24T00:51:25.547Z,4.00
2022-10-24T00:52:32.204Z,3.40
2022-10-24T00:53:38.230Z,4.38
2022-10-24T00:54:43.492Z,3.80
2022-10-24T00:55:49.729Z,4.18
2022-10-24T00:57:01.199Z,3.50
2022-10-24T00:58:05.220Z,3.20
2022-10-24T00:59:11.717Z,4.20
2022-10-24T01:00:17.187Z,3.60
2022-10-24T01:01:19.163Z,4.18
2022-10-24T01:02:22.123Z,3.97
2022-10-24T01:03:23.657Z,3.63
2022-10-24T01:04:26.142Z,3.75
2022-10-24T01:05:36.269Z,3.42
2022-10-24T01:06:47.492Z,3.30
2022-10-24T01:07:58.438Z,3.70
2022-10-24T01:09:09.921Z,3.50
2022-10-24T01:10:32.598Z,4.00
2022-10-24T01:11:48.852Z,3.80
2022-10-24T01:13:02.698Z,3.55
2022-10-24T01:14:14.145Z,3.20
2022-10-24T01:15:22.186Z,3.92
2022-10-24T01:16:30.835Z,4.95
2022-10-24T01:17:39.337Z,3.47
2022-10-24T01:18:49.792Z,3.00
2022-10-24T01:20:25.429Z,3.45
2022-10-24T01:21:32.893Z,2.88
2022-10-24T01:22:47.736Z,3.90
2022-10-24T01:24:24.235Z,3.70
2022-10-24T01:25:39.024Z,3.53
2022-10-24T01:27:00.484Z,3.53
2022-10-24T01:28:07.889Z,3.35
2022-10-24T01:29:19.185Z,4.30
2022-10-24T01:30:22.208Z,3.70
2022-10-24T01:31:31.007Z,3.05
2022-10-24T01:32:42.524Z,3.42
2022-10-24T01:33:52.796Z,3.67
2022-10-24T01:35:00.014Z,3.70
2022-10-24T01:36:09.287Z,3.53
2022-10-24T01:37:18.055Z,3.83
2022-10-24T01:38:26.115Z,4.82
2022-10-24T01:39:33.981Z,3.80
2022-10-24T01:40:42.301Z,3.75
2022-10-24T01:41:45.340Z,3.65
2022-10-24T01:42:50.363Z,3.70
2022-10-24T01:43:56.497Z,3.38
2022-10-24T01:45:02.389Z,3.55
2022-10-24T01:46:10.928Z,3.90
2022-10-24T01:47:19.140Z,3.97
2022-10-24T01:48:24.340Z,3.47
2022-10-24T01:49:32.288Z,4.15
2022-10-24T01:50:36.509Z,3.72
2022-10-24T01:51:41.568Z,3.65
2022-10-24T01:52:46.173Z,4.70
2022-10-24T01:53:50.074Z,3.47
2022-10-24T01:54:51.959Z,3.80
2022-10-24T01:55:55.324Z,3.60
2022-10-24T01:56:56.847Z,3.85
2022-10-24T01:57:59.696Z,3.80
2022-10-24T01:59:05.974Z,3.33
2022-10-24T02:00:10.567Z,3.30
2022-10-24T02:01:18.183Z,3.65
2022-10-24T02:02:24.759Z,3.45
2022-10-24T02:03:32.526Z,3.90
2022-10-24T02:04:41.589Z,5.35
2022-10-24T02:05:48.910Z,3.60
2022-10-24T02:06:51.178Z,3.92
2022-10-24T02:07:57.858Z,4.82
2022-10-24T02:10:13.376Z,3.53
2022-10-24T02:11:14.954Z,4.10
2022-10-24T02:12:19.394Z,3.42
2022-10-24T02:13:27.294Z,3.22
2022-10-24T02:14:36.018Z,3.83
2022-10-24T02:15:42.381Z,3.47
2022-10-24T02:16:47.156Z,3.55
2022-10-24T02:17:48.715Z,4.00
2022-10-24T02:18:53.997Z,3.17
2022-10-24T02:19:56.014Z,3.65
2022-10-24T02:21:07.968Z,4.30
2022-10-24T02:22:18.706Z,3.50
2022-10-24T02:23:27.317Z,3.25
2022-10-24T02:24:33.042Z,4.18
2022-10-24T02:25:38.481Z,4.10
2022-10-24T02:26:48.768Z,4.25
2022-10-24T02:27:54.344Z,3.65
2022-10-24T02:29:01.633Z,3.65
2022-10-24T02:30:09.114Z,3.65
2022-10-24T02:31:16.264Z,3.08
2022-10-24T02:32:24.358Z,3.15
2022-10-24T02:33:27.374Z,3.60
2022-10-24T02:34:32.916Z,3.60
2022-10-24T02:35:36.931Z,2.90
2022-10-24T02:36:42.257Z,3.50
2022-10-24T02:37:47.459Z,3.67
2022-10-24T02:38:53.519Z,3.00
2022-10-24T02:39:57.373Z,3.53
2022-10-24T02:41:03.181Z,3.25
2022-10-24T02:42:07.045Z,3.28
2022-10-24T02:43:11.697Z,3.00
2022-10-24T02:44:16.752Z,3.33
2022-10-24T02:45:20.541Z,3.60
2022-10-24T02:46:27.153Z,3.42
2022-10-24T02:47:32.773Z,2.90
2022-10-24T02:48:40.818Z,2.95
2022-10-24T02:49:43.978Z,3.55
2022-10-24T02:50:47.419Z,3.10
2022-10-24T02:51:49.782Z,3.80
2022-10-24T02:52:52.534Z,4.68
2022-10-24T02:53:54.077Z,3.65
2022-10-24T02:54:56.716Z,3.58
2022-10-24T02:55:58.331Z,3.80
2022-10-24T02:57:03.083Z,3.28
2022-10-24T02:58:04.760Z,3.33
2022-10-24T02:59:07.220Z,3.20
2022-10-24T03:00:10.132Z,3.65
2022-10-24T03:01:14.327Z,3.00
2022-10-24T03:02:16.087Z,3.70
2022-10-24T03:03:19.931Z,4.25
2022-10-24T03:04:22.258Z,3.30
2022-10-24T03:05:24.851Z,3.80
2022-10-24T03:06:26.555Z,3.45
2022-10-24T03:08:35.503Z,3.83
2022-10-24T03:09:38.238Z,3.22
2022-10-24T03:10:40.079Z,3.20
2022-10-24T03:11:42.563Z,3.50
2022-10-24T03:12:44.962Z,3.78
2022-10-24T03:13:48.250Z,3.70
2022-10-24T03:14:49.831Z,3.35
2022-10-24T03:15:52.339Z,3.30
2022-10-24T03:16:54.016Z,3.63
2022-10-24T03:17:56.543Z,3.47
2022-10-24T03:18:59.403Z,3.50
2022-10-24T03:20:01.861Z,3.15
2022-10-24T03:21:03.529Z,3.25
2022-10-24T03:22:06.285Z,3.15
2022-10-24T03:23:07.895Z,3.65
2022-10-24T03:24:10.631Z,4.30
2022-10-24T03:25:12.302Z,3.63
2022-10-24T03:26:14.840Z,3.15
2022-10-24T03:27:16.431Z,3.45
2022-10-24T03:28:18.973Z,3.78
2022-10-24T03:29:20.515Z,3.65
2022-10-24T03:30:23.262Z,3.08
2022-10-24T03:31:28.103Z,3.45
2022-10-24T03:32:30.879Z,3.00
2022-10-24T03:33:32.690Z,3.97
2022-10-24T03:34:36.669Z,3.40
2022-10-24T03:35:38.388Z,3.83
2022-10-24T03:36:41.188Z,3.25
2022-10-24T03:37:43.096Z,3.33
2022-10-24T03:38:45.713Z,3.38
2022-10-24T03:39:47.358Z,3.45
2022-10-24T03:40:50.128Z,3.38
2022-10-24T03:41:51.776Z,3.03
2022-10-24T03:42:54.429Z,3.55
2022-10-24T03:43:56.855Z,2.95
2022-10-24T03:44:59.527Z,3.10
2022-10-24T03:46:02.077Z,3.40
2022-10-24T03:47:04.598Z,3.85
2022-10-24T03:48:14.187Z,4.25
2022-10-24T03:49:16.682Z,3.90
2022-10-24T03:50:19.764Z,3.25
2022-10-24T03:51:22.574Z,3.10
2022-10-24T03:52:24.158Z,2.95
2022-10-24T03:53:26.685Z,4.80
2022-10-24T03:54:28.263Z,4.22
2022-10-24T03:55:31.041Z,3.30
2022-10-24T03:56:32.610Z,3.40
2022-10-24T03:57:35.157Z,4.03
2022-10-24T03:58:36.707Z,3.00
2022-10-24T03:59:39.411Z,2.95
2022-10-24T04:00:43.799Z,3.58
2022-10-24T04:01:46.522Z,3.90
2022-10-24T04:02:50.490Z,3.33
2022-10-24T04:03:53.144Z,3.53
2022-10-24T04:04:54.748Z,3.30
2022-10-24T04:05:59.275Z,3.33
2022-10-24T04:07:00.855Z,3.67
2022-10-24T04:08:04.137Z,3.30
2022-10-24T04:09:05.670Z,3.30
2022-10-24T04:10:08.866Z,2.95
2022-10-24T04:11:10.431Z,3.03
2022-10-24T04:12:13.001Z,3.33
2022-10-24T04:13:14.587Z,5.07
2022-10-24T04:14:17.143Z,5.03
2022-10-24T04:15:18.913Z,3.65
2022-10-24T04:16:23.923Z,4.97
2022-10-24T04:17:25.692Z,3.30
2022-10-24T04:18:28.419Z,3.42
2022-10-24T04:19:30.046Z,3.53
2022-10-24T04:20:32.648Z,3.45
2022-10-24T04:21:35.545Z,2.67
2022-10-24T04:22:38.404Z,3.65
2022-10-24T04:23:41.117Z,2.97
2022-10-24T04:24:43.667Z,3.35
2022-10-24T04:25:45.882Z,3.45
2022-10-24T04:26:48.550Z,3.15
2022-10-24T04:27:50.150Z,2.80
2022-10-24T04:28:52.721Z,2.95
2022-10-24T04:29:54.245Z,3.72
2022-10-24T04:30:57.247Z,4.38
2022-10-24T04:31:58.932Z,2.60
2022-10-24T04:33:01.592Z,3.20
2022-10-24T04:34:05.112Z,3.28
2022-10-24T04:35:08.609Z,3.65
2022-10-24T04:36:10.188Z,3.35
2022-10-24T04:37:14.127Z,3.50
2022-10-24T04:38:15.765Z,3.42
2022-10-24T04:39:19.580Z,3.65
2022-10-24T04:40:21.276Z,3.63
2022-10-24T04:41:23.997Z,4.15
2022-10-24T04:42:25.807Z,2.88
2022-10-24T04:43:28.828Z,3.97
2022-10-24T04:44:30.544Z,3.30
2022-10-24T04:45:33.114Z,3.20
2022-10-24T04:46:34.948Z,3.53
2022-10-24T04:47:38.170Z,5.07
2022-10-24T04:48:40.917Z,4.28
2022-10-24T04:49:43.902Z,3.95
2022-10-24T04:50:46.971Z,3.45
2022-10-24T04:51:49.490Z,2.78
2022-10-24T04:52:52.502Z,3.88
2022-10-24T04:53:55.187Z,3.78
2022-10-24T04:54:56.733Z,3.25
2022-10-24T04:55:59.255Z,3.60
2022-10-24T04:57:00.885Z,2.70
2022-10-24T04:58:03.792Z,3.20
2022-10-24T04:59:05.556Z,2.67
2022-10-24T05:00:09.451Z,3.50
2022-10-24T05:01:13.672Z,3.17
2022-10-24T05:02:16.387Z,4.00
2022-10-24T05:03:20.178Z,3.67
2022-10-24T05:04:22.007Z,4.05
2022-10-24T05:05:24.941Z,2.70
2022-10-24T05:06:26.658Z,3.45
2022-10-24T05:07:29.123Z,3.03
2022-10-24T05:08:32.142Z,3.45
2022-10-24T05:09:34.793Z,3.20
2022-10-24T05:10:36.562Z,3.70
2022-10-24T05:11:39.070Z,3.47
2022-10-24T05:12:41.828Z,3.25
2022-10-24T05:13:49.889Z,3.40
2022-10-24T05:14:52.375Z,3.50
2022-10-24T05:15:53.954Z,2.90
2022-10-24T05:16:56.667Z,2.85
2022-10-24T05:17:58.850Z,3.40
2022-10-24T05:19:01.393Z,3.60
2022-10-24T05:20:05.935Z,3.08
2022-10-24T05:21:08.442Z,3.15
2022-10-24T05:22:10.960Z,3.85
2022-10-24T05:23:13.719Z,3.97
2022-10-24T05:24:16.974Z,3.00
2022-10-24T05:25:20.228Z,3.50
2022-10-24T05:26:21.799Z,3.85
2022-10-24T05:27:25.337Z,3.45
2022-10-24T05:28:27.976Z,4.00
2022-10-24T05:29:30.493Z,3.58
2022-10-24T05:30:32.138Z,3.30
2022-10-24T05:31:35.011Z,3.20
2022-10-24T05:32:39.507Z,3.70
2022-10-24T05:33:42.387Z,3.35
2022-10-24T05:34:44.007Z,4.70
2022-10-24T05:35:46.653Z,3.40
2022-10-24T05:36:48.246Z,3.78
2022-10-24T05:37:50.794Z,3.60
2022-10-24T05:38:52.341Z,4.05
2022-10-24T05:39:56.236Z,3.80
2022-10-24T05:40:57.747Z,5.05
2022-10-24T05:42:00.257Z,4.03
2022-10-24T05:43:01.940Z,3.95
2022-10-24T05:44:04.775Z,3.67
2022-10-24T05:45:07.835Z,3.55
2022-10-24T05:46:11.163Z,3.35
2022-10-24T05:47:12.846Z,3.75
2022-10-24T05:48:15.615Z,5.03
2022-10-24T05:49:17.136Z,3.00
2022-10-24T05:50:19.805Z,3.45
2022-10-24T05:51:22.098Z,3.17
2022-10-24T05:52:24.808Z,3.38
2022-10-24T05:53:27.064Z,3.60
2022-10-24T05:54:37.634Z,2.85
2022-10-24T05:55:53.632Z,3.13
2022-10-24T05:56:55.181Z,2.25
2022-10-24T05:57:58.064Z,2.30
2022-10-24T05:58:59.752Z,2.60
2022-10-24T06:00:02.734Z,2.55
2022-10-24T06:01:05.579Z,3.70
2022-10-24T06:02:08.371Z,3.15
2022-10-24T06:03:11.282Z,3.03
2022-10-24T06:04:14.041Z,2.47
2022-10-24T06:05:15.885Z,3.40
2022-10-24T06:06:18.379Z,2.50
2022-10-24T06:07:19.935Z,2.92
2022-10-24T06:08:22.637Z,2.35
2022-10-24T06:09:24.418Z,2.45
2022-10-24T06:10:26.916Z,2.45
2022-10-24T06:11:30.060Z,2.83
2022-10-24T06:12:32.872Z,2.75
2022-10-24T06:13:36.215Z,2.50
2022-10-24T06:14:41.247Z,2.22
2022-10-24T06:15:43.507Z,2.90
2022-10-24T06:16:46.188Z,2.28
2022-10-24T06:17:47.789Z,2.55
2022-10-24T06:18:50.374Z,3.97
2022-10-24T06:19:51.940Z,3.05
2022-10-24T06:20:56.151Z,3.15
2022-10-24T06:21:57.858Z,2.97
2022-10-24T06:23:00.386Z,2.40
2022-10-24T06:24:02.857Z,2.88
2022-10-24T06:25:05.164Z,2.45
2022-10-24T06:26:11.540Z,2.40
2022-10-24T06:27:15.656Z,2.53
2022-10-24T06:28:17.192Z,5.05
2022-10-24T06:29:19.746Z,4.10
2022-10-24T06:30:21.271Z,2.90
2022-10-24T06:31:25.633Z,2.63
2022-10-24T06:32:27.177Z,2.10
2022-10-24T06:33:29.886Z,2.65
2022-10-24T06:34:31.582Z,1.77
2022-10-24T06:35:34.106Z,2.30
2022-10-24T06:36:36.844Z,2.30
2022-10-24T06:37:40.945Z,2.40
2022-10-24T06:38:44.577Z,3.63
2022-10-24T06:39:47.038Z,2.10
2022-10-24T06:40:48.549Z,2.20
2022-10-24T06:41:51.037Z,2.17
2022-10-24T06:42:53.936Z,2.63
2022-10-24T06:43:57.039Z,2.30
2022-10-24T06:46:07.636Z,2.90
2022-10-24T06:47:10.239Z,2.42
2022-10-24T06:48:12.023Z,2.58
2022-10-24T06:49:15.226Z,2.83
2022-10-24T06:50:17.272Z,2.53
2022-10-24T06:51:19.898Z,2.33
2022-10-24T06:52:22.480Z,3.13
2022-10-24T06:53:24.029Z,2.30
2022-10-24T06:54:29.400Z,2.05
2022-10-24T06:55:32.040Z,2.20
2022-10-24T06:56:34.730Z,2.17
2022-10-24T06:57:36.426Z,2.85
2022-10-24T06:58:40.236Z,2.20
2022-10-24T06:59:41.797Z,2.50
2022-10-24T07:00:44.416Z,2.15
2022-10-24T07:01:46.822Z,2.60
2022-10-24T07:02:49.473Z,1.98
2022-10-24T07:03:52.092Z,2.97
2022-10-24T07:04:54.601Z,3.20
2022-10-24T07:05:56.154Z,3.13
2022-10-24T07:06:58.827Z,5.40
2022-10-24T07:08:01.891Z,3.13
2022-10-24T07:09:04.949Z,2.60
2022-10-24T07:10:08.863Z,3.30
2022-10-24T07:11:10.559Z,3.50
2022-10-24T07:12:13.403Z,3.28
2022-10-24T07:13:16.849Z,3.90
2022-10-24T07:14:20.645Z,3.83
2022-10-24T07:15:23.149Z,3.95
2022-10-24T07:16:25.433Z,3.30
2022-10-24T07:17:29.296Z,3.85
2022-10-24T07:18:30.895Z,3.30
2022-10-24T07:19:37.208Z,2.70
2022-10-24T07:21:41.480Z,3.60
2022-10-24T07:22:45.399Z,3.17
2022-10-24T07:23:48.405Z,3.08
2022-10-24T07:24:53.213Z,3.17
2022-10-24T07:25:55.744Z,3.90
2022-10-24T07:27:00.588Z,3.13
2022-10-24T07:28:02.177Z,3.25
2022-10-24T07:29:04.855Z,3.03
2022-10-24T07:30:09.586Z,3.30
2022-10-24T07:31:13.479Z,3.40
2022-10-24T07:32:15.088Z,2.80
2022-10-24T07:33:19.259Z,3.20
2022-10-24T07:34:21.927Z,3.08
2022-10-24T07:35:23.699Z,2.40
2022-10-24T07:36:27.727Z,2.92
2022-10-24T07:37:29.322Z,2.88
2022-10-24T07:38:31.829Z,3.30
2022-10-24T07:39:33.410Z,3.57
2022-10-24T07:40:36.334Z,2.47
2022-10-24T07:41:41.561Z,4.43
2022-10-24T07:42:43.177Z,5.43
2022-10-24T07:43:46.206Z,3.10
2022-10-24T07:44:47.906Z,5.53
2022-10-24T07:45:52.382Z,2.75
2022-10-24T07:46:54.334Z,2.15
2022-10-24T07:47:57.909Z,3.50
2022-10-24T07:49:00.529Z,2.85
2022-10-24T07:50:02.384Z,2.13
2022-10-24T07:51:07.577Z,2.30
2022-10-24T07:52:10.143Z,2.40
2022-10-24T07:53:13.551Z,3.70
2022-10-24T07:54:15.273Z,2.65
2022-10-24T07:55:17.973Z,1.85
2022-10-24T07:56:19.576Z,2.17
2022-10-24T07:57:22.592Z,2.38
2022-10-24T07:58:24.342Z,2.08
2022-10-24T07:59:41.233Z,2.50
2022-10-24T08:00:45.687Z,2.20
2022-10-24T08:01:49.679Z,2.03
2022-10-24T08:02:52.487Z,1.88
2022-10-24T08:03:54.049Z,1.80
2022-10-24T08:04:56.735Z,2.03
2022-10-24T08:05:59.372Z,2.13
2022-10-24T08:07:01.840Z,2.40
2022-10-24T08:08:27.606Z,1.70
2022-10-24T08:09:27.425Z,2.85
2022-10-24T08:10:29.908Z,1.85
2022-10-24T08:11:34.073Z,1.77
2022-10-24T08:12:37.133Z,2.72
2022-10-24T08:13:41.015Z,2.00
2022-10-24T08:14:44.225Z,2.17
2022-10-24T08:15:46.703Z,2.38
2022-10-24T08:16:50.544Z,2.33
2022-10-24T08:17:52.045Z,2.42
2022-10-24T08:18:56.509Z,2.33
2022-10-24T08:19:58.973Z,2.03
2022-10-24T08:21:03.281Z,1.90
2022-10-24T08:22:05.871Z,1.87
2022-10-24T08:23:08.495Z,2.05
2022-10-24T08:24:11.302Z,2.03
2022-10-24T08:25:14.382Z,2.15
2022-10-24T08:26:17.912Z,1.70
2022-10-24T08:27:20.377Z,1.40
2022-10-24T08:28:23.514Z,2.10
2022-10-24T08:29:26.299Z,1.98
2022-10-24T08:30:28.947Z,2.00
2022-10-24T08:31:30.518Z,1.60
2022-10-24T08:32:34.449Z,2.30
2022-10-24T08:33:36.157Z,2.00
2022-10-24T08:34:40.505Z,2.03
2022-10-24T08:35:47.244Z,1.80
2022-10-24T08:36:50.990Z,3.10
2022-10-24T08:37:53.534Z,2.07
2022-10-24T08:38:56.519Z,2.50
2022-10-24T08:39:59.023Z,2.00
2022-10-24T08:41:00.880Z,2.10
2022-10-24T08:42:06.207Z,2.10
2022-10-24T08:43:09.930Z,2.33
2022-10-24T08:44:20.941Z,1.70
2022-10-24T08:45:31.004Z,2.00
2022-10-24T08:46:48.800Z,2.30
2022-10-24T08:47:59.430Z,2.00
2022-10-24T08:49:06.059Z,2.13
2022-10-24T08:50:17.515Z,1.83
2022-10-24T08:51:30.733Z,1.85
2022-10-24T08:52:36.780Z,1.85
2022-10-24T08:53:39.921Z,2.40
2022-10-24T08:54:45.552Z,1.85
2022-10-24T08:55:50.482Z,2.10
2022-10-24T08:56:57.848Z,1.98
2022-10-24T08:58:02.245Z,2.60
2022-10-24T08:59:05.402Z,1.70
2022-10-24T09:00:17.592Z,1.80
2022-10-24T09:01:29.629Z,1.80
2022-10-24T09:02:37.867Z,1.70
2022-10-24T09:04:00.795Z,2.37
2022-10-24T09:05:15.321Z,1.70
2022-10-24T09:06:19.137Z,2.20
2022-10-24T09:08:33.483Z,2.00
2022-10-24T09:09:40.358Z,2.00
2022-10-24T09:10:49.002Z,2.60
2022-10-24T09:11:55.336Z,2.40
2022-10-24T09:12:57.472Z,2.07
2022-10-24T09:14:03.018Z,2.03
2022-10-24T09:15:14.896Z,1.90
2022-10-24T09:16:21.746Z,1.90
2022-10-24T09:17:26.040Z,2.00
2022-10-24T09:18:32.540Z,2.90
2022-10-24T09:19:36.523Z,2.13
2022-10-24T09:20:39.591Z,1.93
2022-10-24T09:21:42.333Z,1.60
2022-10-24T09:22:45.760Z,2.07
2022-10-24T09:23:50.393Z,2.00
2022-10-24T09:24:57.435Z,1.63
2022-10-24T09:25:59.129Z,1.60
2022-10-24T09:27:04.348Z,1.97
2022-10-24T09:28:07.427Z,2.07
2022-10-24T09:29:09.298Z,2.33
2022-10-24T09:30:18.371Z,1.60
2022-10-24T09:31:22.226Z,2.53
2022-10-24T09:32:27.695Z,2.17
2022-10-24T09:33:33.528Z,1.90
2022-10-24T09:34:37.345Z,2.07
2022-10-24T09:35:40.817Z,1.93
2022-10-24T09:36:43.654Z,1.97
2022-10-24T09:37:48.974Z,2.10
2022-10-24T09:38:51.822Z,2.20
2022-10-24T09:40:07.212Z,5.20
2022-10-24T09:41:22.074Z,1.73
2022-10-24T09:42:24.135Z,2.80
2022-10-24T09:43:34.851Z,2.47
2022-10-24T09:44:39.131Z,1.70
2022-10-24T09:45:44.415Z,2.53
2022-10-24T09:46:47.874Z,1.80
2022-10-24T09:47:55.415Z,2.00
2022-10-24T09:49:00.087Z,1.80
2022-10-24T09:50:06.503Z,1.80
2022-10-24T09:51:09.719Z,2.10
2022-10-24T09:52:20.474Z,1.83
2022-10-24T09:53:25.949Z,2.33
2022-10-24T09:54:30.769Z,2.10
2022-10-24T09:55:34.260Z,2.03
2022-10-24T09:56:39.941Z,2.50
2022-10-24T09:57:41.558Z,2.07
2022-10-24T09:58:44.260Z,2.17
2022-10-24T09:59:48.045Z,2.63
2022-10-24T10:00:59.645Z,2.10
2022-10-24T10:02:25.988Z,1.77
2022-10-24T10:03:28.605Z,2.47
2022-10-24T10:04:31.085Z,2.17
2022-10-24T10:05:47.753Z,2.20
2022-10-24T10:06:50.667Z,3.63
2022-10-24T10:07:53.474Z,2.20
2022-10-24T10:08:57.716Z,2.10
2022-10-24T10:10:04.578Z,1.83
2022-10-24T10:11:09.825Z,1.80
2022-10-24T10:12:26.180Z,1.93
2022-10-24T10:13:30.580Z,2.07
2022-10-24T10:14:33.282Z,2.50
2022-10-24T10:15:38.183Z,2.43
2022-10-24T10:16:40.724Z,2.43
2022-10-24T10:17:49.820Z,1.90
2022-10-24T10:19:01.234Z,3.10
2022-10-24T10:20:03.670Z,2.00
2022-10-24T10:21:12.177Z,2.20
2022-10-24T10:22:24.862Z,2.27
2022-10-24T10:23:29.384Z,1.53
2022-10-24T10:24:39.776Z,2.40
2022-10-24T10:25:41.337Z,2.20
2022-10-24T10:26:45.632Z,2.50
2022-10-24T10:27:51.973Z,2.50
2022-10-24T10:28:58.828Z,2.00
2022-10-24T10:30:19.611Z,2.47
2022-10-24T10:31:23.697Z,2.03
2022-10-24T10:32:33.678Z,2.13
2022-10-24T10:33:46.724Z,2.73
2022-10-24T10:35:01.932Z,1.90
2022-10-24T10:36:14.903Z,2.10
2022-10-24T10:37:29.901Z,2.03
2022-10-24T10:38:43.761Z,2.40
2022-10-24T10:40:14.880Z,2.47
2022-10-24T10:41:32.489Z,1.67
2022-10-24T10:42:39.752Z,2.30
2022-10-24T10:43:50.853Z,2.37
2022-10-24T10:45:03.665Z,2.10
2022-10-24T10:46:17.210Z,1.90
2022-10-24T10:47:34.876Z,2.27
2022-10-24T10:48:52.919Z,2.03
2022-10-24T10:49:58.620Z,2.43
2022-10-24T10:51:08.357Z,1.73
2022-10-24T10:52:19.399Z,2.43
2022-10-24T10:53:34.012Z,2.40
2022-10-24T10:54:55.092Z,2.10
2022-10-24T10:56:04.675Z,2.33
2022-10-24T10:57:12.458Z,2.70
2022-10-24T10:58:26.860Z,2.53
2022-10-24T10:59:42.763Z,2.00
2022-10-24T11:00:51.925Z,2.83
2022-10-24T11:02:01.201Z,2.27
2022-10-24T11:03:16.188Z,1.93
2022-10-24T11:04:34.356Z,2.20
2022-10-24T11:05:46.376Z,2.90
2022-10-24T11:08:20.609Z,2.20
2022-10-24T11:09:30.535Z,1.93
2022-10-24T11:10:37.403Z,2.10
2022-10-24T11:11:43.309Z,2.10
2022-10-24T11:12:47.379Z,2.70
2022-10-24T11:13:54.473Z,2.50
2022-10-24T11:15:03.334Z,2.00
2022-10-24T11:16:10.393Z,2.20
2022-10-24T11:17:17.871Z,2.60
2022-10-24T11:18:26.941Z,2.27
2022-10-24T11:19:36.017Z,2.33
2022-10-24T11:20:43.656Z,2.40
2022-10-24T11:21:45.489Z,1.97
2022-10-24T11:22:52.822Z,1.80
2022-10-24T11:24:00.262Z,3.30
2022-10-24T11:25:10.601Z,2.73
2022-10-24T11:26:20.207Z,2.40
2022-10-24T11:27:29.715Z,2.97
2022-10-24T11:28:37.173Z,2.30
2022-10-24T11:29:45.309Z,3.03
2022-10-24T11:30:52.772Z,2.57
2022-10-24T11:31:57.889Z,2.10
2022-10-24T11:33:04.068Z,2.63
2022-10-24T11:34:12.398Z,3.17
2022-10-24T11:35:24.918Z,2.47
2022-10-24T11:36:34.620Z,2.30
2022-10-24T11:37:39.883Z,2.27
2022-10-24T11:38:49.155Z,2.47
2022-10-24T11:39:58.002Z,2.23
2022-10-24T11:41:15.985Z,2.37
2022-10-24T11:42:28.062Z,1.93
2022-10-24T11:43:38.084Z,2.20
2022-10-24T11:44:48.095Z,4.60
2022-10-24T11:45:56.940Z,2.10
2022-10-24T11:47:11.049Z,2.20
2022-10-24T11:48:17.113Z,3.20
2022-10-24T11:49:24.419Z,2.40
2022-10-24T11:50:33.077Z,2.30
2022-10-24T11:51:38.900Z,3.40
2022-10-24T11:52:45.853Z,2.30
2022-10-24T11:53:54.152Z,2.90
2022-10-24T11:55:02.941Z,2.30
2022-10-24T11:56:12.333Z,2.87
2022-10-24T11:57:18.809Z,2.53
2022-10-24T11:58:26.448Z,2.50
2022-10-24T11:59:30.547Z,1.93
2022-10-24T12:00:37.759Z,2.60
2022-10-24T12:02:11.525Z,2.63
2022-10-24T12:03:36.224Z,2.10
2022-10-24T12:05:04.917Z,2.17
2022-10-24T12:06:21.117Z,2.20
2022-10-24T12:08:14.496Z,2.40
2022-10-24T12:09:39.066Z,2.63
2022-10-24T12:11:05.848Z,1.90
2022-10-24T12:12:21.786Z,2.60
2022-10-24T12:13:45.783Z,2.10
2022-10-24T12:15:16.086Z,2.10
2022-10-24T12:16:31.368Z,2.07
2022-10-24T12:18:01.374Z,2.33
2022-10-24T12:19:06.912Z,2.70
2022-10-24T12:20:15.925Z,2.00
2022-10-24T12:21:25.751Z,2.30
2022-10-24T12:22:36.043Z,2.17
2022-10-24T12:23:41.349Z,2.70
2022-10-24T12:24:43.474Z,3.13
2022-10-24T12:25:48.818Z,2.60
2022-10-24T12:27:02.558Z,1.77
2022-10-24T12:28:07.458Z,2.80
2022-10-24T12:29:24.703Z,1.97
2022-10-24T12:30:30.499Z,2.00
2022-10-24T12:31:34.033Z,2.10
2022-10-24T12:32:40.722Z,2.30
2022-10-24T12:33:44.084Z,2.20
2022-10-24T12:35:06.934Z,2.73
2022-10-24T12:36:58.143Z,2.73
2022-10-24T12:38:00.693Z,3.23
2022-10-24T12:39:04.755Z,2.47
2022-10-24T12:40:43.483Z,2.20
2022-10-24T12:41:46.053Z,1.67
2022-10-24T12:43:15.333Z,1.93
2022-10-24T12:44:52.805Z,2.13
2022-10-24T12:45:54.658Z,3.00
2022-10-24T12:46:57.224Z,2.13
2022-10-24T12:48:29.252Z,3.10
2022-10-24T12:49:33.852Z,2.27
2022-10-24T12:51:26.449Z,2.20
2022-10-24T12:52:49.843Z,2.50
2022-10-24T12:54:15.258Z,2.07
2022-10-24T12:55:32.730Z,2.30
2022-10-24T12:56:36.026Z,2.57
2022-10-24T12:57:45.755Z,2.30
2022-10-24T12:59:20.351Z,2.27
2022-10-24T13:00:24.827Z,1.90
2022-10-24T13:01:37.557Z,3.30
2022-10-24T13:03:04.045Z,2.90
2022-10-24T13:04:28.832Z,3.80
2022-10-24T13:05:50.006Z,2.00
2022-10-24T13:07:26.242Z,2.37
2022-10-24T13:08:45.356Z,1.70
2022-10-24T13:09:56.785Z,2.27
2022-10-24T13:11:11.568Z,1.37
2022-10-24T13:12:43.026Z,2.10
2022-10-24T13:14:06.013Z,2.40
2022-10-24T13:15:24.994Z,1.60
2022-10-24T13:16:37.207Z,3.70
2022-10-24T13:17:48.421Z,1.97
2022-10-24T13:19:03.774Z,2.10
2022-10-24T13:20:15.270Z,2.07
2022-10-24T13:21:25.283Z,2.80
2022-10-24T13:22:30.691Z,2.63
2022-10-24T13:23:33.302Z,2.40
2022-10-24T13:24:40.435Z,2.70
2022-10-24T13:25:44.682Z,1.50
2022-10-24T13:26:51.194Z,2.10
2022-10-24T13:28:35.907Z,2.10
2022-10-24T13:30:02.018Z,1.90
2022-10-24T13:31:44.573Z,2.10
2022-10-24T13:32:48.501Z,2.10
2022-10-24T13:33:53.092Z,1.53
2022-10-24T13:34:59.551Z,2.30
2022-10-24T13:36:16.274Z,2.20
2022-10-24T13:37:24.377Z,2.47
2022-10-24T13:38:26.549Z,2.37
2022-10-24T13:39:37.474Z,4.57
2022-10-24T13:40:45.430Z,2.37
2022-10-24T13:41:49.670Z,1.77
2022-10-24T13:42:55.058Z,1.80
2022-10-24T13:44:01.660Z,1.63
2022-10-24T13:45:07.805Z,1.87
2022-10-24T13:46:13.251Z,1.70
2022-10-24T13:47:21.022Z,2.63
2022-10-24T13:48:28.167Z,2.10
2022-10-24T13:49:33.747Z,1.63
2022-10-24T13:50:48.127Z,2.03
2022-10-24T13:51:52.764Z,2.07
2022-10-24T13:52:59.052Z,1.47
2022-10-24T13:54:06.784Z,1.90
2022-10-24T13:55:21.638Z,1.87
2022-10-24T13:56:23.548Z,2.33
2022-10-24T13:57:29.334Z,1.80
2022-10-24T13:58:42.092Z,2.10
2022-10-24T13:59:45.173Z,2.10
2022-10-24T14:00:55.682Z,2.23
2022-10-24T14:01:59.531Z,2.17
2022-10-24T14:03:05.096Z,2.27
2022-10-24T14:04:08.401Z,2.00
2022-10-24T14:05:21.612Z,2.07
2022-10-24T14:06:26.540Z,3.17
2022-10-24T14:07:33.530Z,2.23
2022-10-24T14:08:39.022Z,2.13
2022-10-24T14:09:42.896Z,2.20
2022-10-24T14:10:45.574Z,2.57
2022-10-24T14:11:48.539Z,2.47
2022-10-24T14:12:56.819Z,1.70
2022-10-24T14:14:04.264Z,2.20
2022-10-24T14:15:18.567Z,1.90
2022-10-24T14:16:24.284Z,2.53
2022-10-24T14:17:29.098Z,2.50
2022-10-24T14:18:30.889Z,4.70
2022-10-24T14:19:38.377Z,2.37
2022-10-24T14:20:42.596Z,2.50
2022-10-24T14:21:46.036Z,2.20
2022-10-24T14:22:49.093Z,3.57
2022-10-24T14:23:55.779Z,2.20
2022-10-24T14:24:58.445Z,2.03
2022-10-24T14:26:03.579Z,2.07
2022-10-24T14:27:05.521Z,2.70
2022-10-24T14:28:11.958Z,2.80
2022-10-24T14:29:23.274Z,2.23
2022-10-24T14:30:34.372Z,1.83
2022-10-24T14:31:37.946Z,2.40
2022-10-24T14:32:39.460Z,2.57
2022-10-24T14:33:44.923Z,2.93
2022-10-24T14:34:49.222Z,2.63
2022-10-24T14:35:55.271Z,2.00
2022-10-24T14:37:02.786Z,2.00
2022-10-24T14:38:09.652Z,2.20
2022-10-24T14:39:23.560Z,2.57
2022-10-24T14:40:27.258Z,2.00
2022-10-24T14:41:32.956Z,2.43
2022-10-24T14:42:34.904Z,2.33
2022-10-24T14:43:41.529Z,2.00
2022-10-24T14:44:46.254Z,2.73
2022-10-24T14:46:25.993Z,2.60
2022-10-24T14:47:31.308Z,2.50
2022-10-24T14:48:32.887Z,2.03
2022-10-24T14:49:37.796Z,3.70
2022-10-24T14:50:43.306Z,2.27